createdAt,value
2023-05-19T00:00:30.945Z,2.22
2023-05-19T00:05:33.559Z,2.53
2023-05-19T00:10:35.523Z,2.30
2023-05-19T00:15:37.437Z,2.45
2023-05-19T00:20:39.031Z,2.90
2023-05-19T00:25:40.700Z,2.30
2023-05-19T00:30:42.253Z,2.53
2023-05-19T00:35:43.967Z,2.22
2023-05-19T00:40:45.908Z,2.10
2023-05-19T00:45:47.535Z,2.20
2023-05-19T00:50:50.771Z,2.17
2023-05-19T00:55:52.312Z,2.35
2023-05-19T01:00:56.102Z,2.40
2023-05-19T01:06:01.649Z,2.95
2023-05-19T01:11:07.292Z,2.70
2023-05-19T01:16:35.251Z,2.83
2023-05-19T01:22:01.011Z,3.00
2023-05-19T01:27:22.103Z,3.08
2023-05-19T01:32:24.085Z,3.20
2023-05-19T01:37:28.792Z,3.33
2023-05-19T01:42:37.249Z,2.80
2023-05-19T01:47:44.367Z,3.00
2023-05-19T01:52:46.006Z,3.10
2023-05-19T01:58:02.580Z,2.67
2023-05-19T02:03:37.748Z,2.90
2023-05-19T02:08:55.282Z,3.00
2023-05-19T02:14:01.202Z,3.35
2023-05-19T02:19:02.845Z,3.30
2023-05-19T02:24:04.454Z,3.10
2023-05-19T02:29:06.055Z,3.28
2023-05-19T02:34:08.691Z,3.05
2023-05-19T02:39:12.229Z,3.22
2023-05-19T02:44:13.940Z,2.75
2023-05-19T02:49:15.675Z,3.00
2023-05-19T02:54:17.265Z,3.25
2023-05-19T02:59:18.852Z,3.20
2023-05-19T03:04:20.351Z,3.72
2023-05-19T03:09:21.899Z,3.42
2023-05-19T03:14:24.524Z,3.50
2023-05-19T03:19:29.154Z,3.47
2023-05-19T03:24:30.795Z,3.53
2023-05-19T03:29:32.419Z,3.28
2023-05-19T03:34:35.432Z,3.13
2023-05-19T03:39:37.724Z,2.80
2023-05-19T03:44:39.548Z,2.83
2023-05-19T03:49:41.161Z,3.22
2023-05-19T03:55:21.445Z,3.30
2023-05-19T04:00:23.776Z,3.20
2023-05-19T04:05:25.986Z,2.92
2023-05-19T04:10:29.079Z,3.38
2023-05-19T04:15:30.787Z,3.47
2023-05-19T04:20:32.489Z,3.15
2023-05-19T04:25:36.072Z,2.90
2023-05-19T04:30:38.676Z,3.00
2023-05-19T04:35:40.590Z,3.20
2023-05-19T04:40:44.369Z,3.25
2023-05-19T04:45:47.329Z,3.60
2023-05-19T04:50:51.814Z,3.35
2023-05-19T04:55:53.900Z,2.97
2023-05-19T05:00:56.009Z,3.03
2023-05-19T05:05:58.653Z,3.15
2023-05-19T05:11:00.718Z,2.78
2023-05-19T05:16:04.713Z,3.05
2023-05-19T05:21:07.573Z,2.83
2023-05-19T05:26:18.101Z,2.80
2023-05-19T05:31:21.666Z,2.72
2023-05-19T05:36:23.432Z,2.72
2023-05-19T05:41:25.134Z,3.03
2023-05-19T05:46:28.025Z,2.97
2023-05-19T05:51:31.196Z,2.78
2023-05-19T05:56:33.894Z,2.92
2023-05-19T06:01:36.698Z,2.85
2023-05-19T06:06:41.085Z,2.58
2023-05-19T06:11:43.594Z,2.67
2023-05-19T06:16:48.002Z,2.80
2023-05-19T06:21:51.947Z,2.40
2023-05-19T06:26:53.695Z,2.17
2023-05-19T06:31:55.753Z,2.40
2023-05-19T06:36:57.561Z,2.53
2023-05-19T06:41:59.902Z,2.17
2023-05-19T06:47:21.379Z,2.20
2023-05-19T06:52:23.736Z,2.58
2023-05-19T06:57:25.783Z,3.15
2023-05-19T07:02:30.617Z,2.03
2023-05-19T07:07:32.470Z,2.30
2023-05-19T07:12:37.556Z,2.72
2023-05-19T07:17:41.352Z,2.40
2023-05-19T07:22:43.463Z,2.35
2023-05-19T07:27:45.876Z,2.28
2023-05-19T07:32:47.454Z,2.10
2023-05-19T07:37:49.665Z,1.83
2023-05-19T07:42:51.321Z,2.33
2023-05-19T07:47:53.970Z,2.05
2023-05-19T07:52:56.138Z,2.33
2023-05-19T07:57:57.792Z,1.90
2023-05-19T08:03:00.084Z,2.42
2023-05-19T08:08:03.000Z,2.10
2023-05-19T08:13:05.197Z,2.05
2023-05-19T08:18:06.885Z,2.00
2023-05-19T08:23:08.426Z,2.30
2023-05-19T08:28:10.274Z,2.05
2023-05-19T08:33:12.014Z,2.20
2023-05-19T08:38:13.660Z,2.13
2023-05-19T08:43:15.472Z,2.53
2023-05-19T08:48:18.551Z,2.28
2023-05-19T08:53:33.025Z,2.42
2023-05-19T08:58:35.521Z,2.53
2023-05-19T09:03:41.080Z,2.65
2023-05-19T09:08:44.174Z,2.35
2023-05-19T09:13:46.113Z,2.60
2023-05-19T09:18:56.224Z,2.00
2023-05-19T09:23:59.305Z,2.42
2023-05-19T09:29:01.073Z,2.35
2023-05-19T09:34:02.709Z,2.20
2023-05-19T09:39:13.118Z,2.60
2023-05-19T09:44:21.027Z,2.38
2023-05-19T09:49:31.161Z,2.20
2023-05-19T09:54:34.060Z,1.88
2023-05-19T09:59:39.090Z,2.35
2023-05-19T10:04:42.227Z,1.95
2023-05-19T10:09:44.865Z,1.90
2023-05-19T10:14:47.788Z,2.65
2023-05-19T10:19:50.782Z,1.88
2023-05-19T10:24:52.321Z,2.00
2023-05-19T10:29:56.580Z,2.47
2023-05-19T10:35:23.429Z,1.67
2023-05-19T10:40:33.188Z,1.95
2023-05-19T10:50:45.769Z,1.65
2023-05-19T10:55:55.909Z,1.50
2023-05-19T11:01:01.515Z,1.55
2023-05-19T11:06:24.841Z,1.98
2023-05-19T11:11:27.197Z,1.75
2023-05-19T11:16:29.998Z,1.70
2023-05-19T11:22:22.836Z,1.63
2023-05-19T11:27:28.822Z,1.40
2023-05-19T11:32:33.674Z,1.70
2023-05-19T11:37:36.002Z,1.60
2023-05-19T11:42:37.681Z,1.27
2023-05-19T11:47:56.503Z,1.70
2023-05-19T11:53:01.920Z,1.77
2023-05-19T11:58:05.820Z,1.60
2023-05-19T12:03:09.119Z,1.88
2023-05-19T12:08:11.921Z,1.80
2023-05-19T12:13:14.646Z,1.55
2023-05-19T12:18:16.210Z,1.55
2023-05-19T12:23:18.021Z,2.00
2023-05-19T12:28:20.096Z,1.73
2023-05-19T12:33:22.836Z,1.95
2023-05-19T12:38:24.386Z,2.03
2023-05-19T12:43:25.948Z,1.92
2023-05-19T12:48:28.576Z,2.38
2023-05-19T12:53:30.171Z,2.42
2023-05-19T12:58:34.353Z,2.22
2023-05-19T13:03:43.644Z,1.85
2023-05-19T13:08:47.272Z,1.90
2023-05-19T13:13:48.886Z,1.60
2023-05-19T13:18:51.530Z,1.90
2023-05-19T13:23:53.403Z,1.98
2023-05-19T13:28:57.300Z,2.05
2023-05-19T13:33:58.868Z,1.95
2023-05-19T13:39:01.246Z,2.03
2023-05-19T13:44:02.796Z,2.13
2023-05-19T13:49:04.349Z,2.35
2023-05-19T13:54:05.878Z,2.38
2023-05-19T13:59:07.788Z,2.00
2023-05-19T14:04:10.643Z,2.33
2023-05-19T14:09:13.241Z,2.03
2023-05-19T14:14:14.881Z,1.80
2023-05-19T14:19:16.498Z,2.15
2023-05-19T14:24:18.294Z,2.20
2023-05-19T14:29:20.173Z,2.05
2023-05-19T14:34:21.813Z,2.97
2023-05-19T14:39:23.429Z,2.08
2023-05-19T14:44:29.819Z,2.03
2023-05-19T14:49:31.388Z,2.40
2023-05-19T14:54:33.850Z,1.85
2023-05-19T14:59:38.854Z,1.95
2023-05-19T15:04:40.528Z,1.90
2023-05-19T15:09:42.123Z,2.10
2023-05-19T15:14:43.799Z,2.05
2023-05-19T15:19:45.420Z,2.28
2023-05-19T15:24:47.064Z,2.20
2023-05-19T15:29:48.635Z,1.98
2023-05-19T15:34:50.259Z,1.70
2023-05-19T15:39:51.911Z,2.20
2023-05-19T15:44:53.528Z,1.83
2023-05-19T15:49:55.114Z,1.77
2023-05-19T15:54:59.116Z,1.90
2023-05-19T16:00:01.018Z,2.20
2023-05-19T16:05:02.631Z,2.17
2023-05-19T16:10:04.523Z,1.58
2023-05-19T16:15:06.612Z,1.90
2023-05-19T16:20:08.791Z,2.30
2023-05-19T16:25:10.709Z,1.70
2023-05-19T16:30:12.867Z,2.50
2023-05-19T16:35:14.591Z,1.98
2023-05-19T16:40:16.219Z,2.17
2023-05-19T16:45:17.870Z,1.98
2023-05-19T16:50:19.442Z,1.67
2023-05-19T16:55:22.615Z,1.58
2023-05-19T17:00:24.281Z,1.80
2023-05-19T17:05:27.221Z,1.90
2023-05-19T17:10:28.785Z,1.90
2023-05-19T17:15:30.415Z,1.90
2023-05-19T17:20:32.157Z,1.90
2023-05-19T17:25:34.667Z,1.88
2023-05-19T17:30:36.570Z,1.92
2023-05-19T17:35:38.464Z,1.88
2023-05-19T17:40:41.961Z,1.98
2023-05-19T17:45:43.784Z,1.77
2023-05-19T17:50:49.341Z,2.40
2023-05-19T17:55:52.963Z,1.90
2023-05-19T18:00:55.362Z,2.10
2023-05-19T18:05:57.007Z,2.13
2023-05-19T18:10:58.840Z,1.92
2023-05-19T18:16:00.489Z,2.00
2023-05-19T18:21:02.055Z,1.92
2023-05-19T18:26:03.756Z,2.67
2023-05-19T18:31:06.326Z,1.77
2023-05-19T18:36:08.477Z,2.30
2023-05-19T18:41:10.491Z,2.08
2023-05-19T18:46:13.418Z,1.83
2023-05-19T18:51:15.809Z,2.00
2023-05-19T18:56:28.216Z,1.77
2023-05-19T19:01:29.902Z,2.15
2023-05-19T19:06:31.830Z,1.85
2023-05-19T19:11:33.454Z,1.52
2023-05-19T19:16:35.120Z,2.35
2023-05-19T19:21:36.822Z,2.08
2023-05-19T19:26:38.549Z,2.22
2023-05-19T19:31:40.169Z,2.25
2023-05-19T19:36:44.875Z,3.30
2023-05-19T19:41:46.479Z,2.53
2023-05-19T19:46:48.396Z,2.75
2023-05-19T19:51:50.106Z,2.45
2023-05-19T19:56:51.742Z,2.95
2023-05-19T20:01:53.515Z,2.90
2023-05-19T20:06:55.077Z,2.67
2023-05-19T20:11:56.632Z,2.80
2023-05-19T20:16:58.205Z,2.83
2023-05-19T20:22:02.645Z,2.97
2023-05-19T20:27:04.304Z,2.65
2023-05-19T20:32:06.244Z,2.55
2023-05-19T20:37:07.916Z,2.85
2023-05-19T20:42:09.739Z,3.20
2023-05-19T20:47:11.540Z,2.85
2023-05-19T20:52:13.116Z,3.70
2023-05-19T20:57:14.753Z,2.92
2023-05-19T21:02:16.327Z,3.35
2023-05-19T21:07:17.979Z,3.33
2023-05-19T21:12:23.786Z,3.70
2023-05-19T21:17:25.447Z,3.47
2023-05-19T21:22:27.748Z,3.10
2023-05-19T21:27:29.468Z,3.17
2023-05-19T21:32:31.179Z,3.20
2023-05-19T21:37:32.725Z,3.03
2023-05-19T21:42:35.285Z,3.10
2023-05-19T21:47:36.882Z,3.15
2023-05-19T21:52:38.621Z,3.25
2023-05-19T21:57:40.497Z,3.67
2023-05-19T22:02:42.232Z,3.53
2023-05-19T22:07:43.961Z,3.72
2023-05-19T22:12:45.521Z,3.35
2023-05-19T22:17:47.194Z,3.50
2023-05-19T22:22:48.739Z,3.45
2023-05-19T22:27:50.460Z,3.42
2023-05-19T22:32:52.120Z,3.67
2023-05-19T22:37:53.689Z,3.58
2023-05-19T22:42:55.209Z,3.95
2023-05-19T22:47:59.256Z,3.88
2023-05-19T22:53:00.848Z,3.53
2023-05-19T22:58:02.502Z,3.30
2023-05-19T23:03:04.155Z,4.15
2023-05-19T23:08:05.991Z,4.82
2023-05-19T23:13:09.501Z,3.92
2023-05-19T23:18:11.589Z,3.75
2023-05-19T23:23:13.344Z,3.72
2023-05-19T23:28:14.913Z,3.60
2023-05-19T23:33:16.457Z,3.28
2023-05-19T23:38:18.018Z,3.15
2023-05-19T23:43:19.544Z,3.00
2023-05-19T23:48:21.160Z,2.67
2023-05-19T23:53:22.723Z,2.63
2023-05-19T23:58:24.344Z,3.00
